sensor_id;sensor_type;location;lat;lon;timestamp;temperature;humidity
7290;DHT22;63176;52.678;13.250;2022-10-24T00:00:27;13.50;99.90
7290;DHT22;63176;52.678;13.250;2022-10-24T00:02:53;13.50;99.90
7290;DHT22;63176;52.678;13.250;2022-10-24T00:05:18;13.50;99.90
7290;DHT22;63176;52.678;13.250;2022-10-24T00:07:44;13.50;99.90
7290;DHT22;63176;52.678;13.250;2022-10-24T00:10:12;13.50;1.00
7290;DHT22;63176;52.678;13.250;2022-10-24T00:12:39;13.50;1.00
7290;DHT22;63176;52.678;13.250;2022-10-24T00:15:06;13.50;1.00
7290;DHT22;63176;52.678;13.250;2022-10-24T00:17:32;13.50;1.00
7290;DHT22;63176;52.678;13.250;2022-10-24T00:19:58;13.50;1.00
7290;DHT22;63176;52.678;13.250;2022-10-24T00:22:25;13.40;1.00
7290;DHT22;63176;52.678;13.250;2022-10-24T00:24:51;13.40;1.00
7290;DHT22;63176;52.678;13.250;2022-10-24T00:27:17;13.40;1.00
7290;DHT22;63176;52.678;13.250;2022-10-24T00:29:43;13.30;1.00
7290;DHT22;63176;52.678;13.250;2022-10-24T00:32:08;13.30;1.00
7290;DHT22;63176;52.678;13.250;2022-10-24T00:34:34;13.30;1.00
7290;DHT22;63176;52.678;13.250;2022-10-24T00:37:00;13.30;1.00
7290;DHT22;63176;52.678;13.250;2022-10-24T00:39:26;13.30;1.00
7290;DHT22;63176;52.678;13.250;2022-10-24T00:41:51;13.20;1.00
7290;DHT22;63176;52.678;13.250;2022-10-24T00:44:45;13.30;1.00
7290;DHT22;63176;52.678;13.250;2022-10-24T00:47:18;13.20;1.00
7290;DHT22;63176;52.678;13.250;2022-10-24T00:49:52;13.30;1.00
7290;DHT22;63176;52.678;13.250;2022-10-24T00:52:24;13.20;1.00
7290;DHT22;63176;52.678;13.250;2022-10-24T00:54:52;13.20;1.00
7290;DHT22;63176;52.678;13.250;2022-10-24T00:57:47;13.20;1.00
7290;DHT22;63176;52.678;13.250;2022-10-24T01:00:27;13.20;1.00
7290;DHT22;63176;52.678;13.250;2022-10-24T01:02:53;13.10;1.00
7290;DHT22;63176;52.678;13.250;2022-10-24T01:05:20;13.10;1.00
7290;DHT22;63176;52.678;13.250;2022-10-24T01:16:50;13.00;1.00
7290;DHT22;63176;52.678;13.250;2022-10-24T01:22:34;13.00;70.80
7290;DHT22;63176;52.678;13.250;2022-10-24T01:25:30;13.10;99.90
7290;DHT22;63176;52.678;13.250;2022-10-24T01:28:08;13.10;66.30
7290;DHT22;63176;52.678;13.250;2022-10-24T01:30:43;13.10;99.90
7290;DHT22;63176;52.678;13.250;2022-10-24T01:33:21;13.10;99.90
7290;DHT22;63176;52.678;13.250;2022-10-24T01:40:59;13.10;99.90
7290;DHT22;63176;52.678;13.250;2022-10-24T01:43:42;13.10;99.90
7290;DHT22;63176;52.678;13.250;2022-10-24T01:46:14;13.10;99.90
7290;DHT22;63176;52.678;13.250;2022-10-24T01:48:46;13.10;99.90
7290;DHT22;63176;52.678;13.250;2022-10-24T01:51:14;13.10;99.90
7290;DHT22;63176;52.678;13.250;2022-10-24T01:53:42;13.10;99.90
7290;DHT22;63176;52.678;13.250;2022-10-24T01:56:08;13.20;99.90
7290;DHT22;63176;52.678;13.250;2022-10-24T01:58:34;13.10;99.90
7290;DHT22;63176;52.678;13.250;2022-10-24T02:01:04;13.20;99.90
7290;DHT22;63176;52.678;13.250;2022-10-24T02:03:36;13.20;1.00
7290;DHT22;63176;52.678;13.250;2022-10-24T02:06:31;13.20;1.00
7290;DHT22;63176;52.678;13.250;2022-10-24T02:08:57;13.20;1.00
7290;DHT22;63176;52.678;13.250;2022-10-24T02:11:24;13.20;1.00
7290;DHT22;63176;52.678;13.250;2022-10-24T02:13:59;13.20;1.00
7290;DHT22;63176;52.678;13.250;2022-10-24T02:16:27;13.20;1.00
7290;DHT22;63176;52.678;13.250;2022-10-24T02:18:55;13.10;1.00
7290;DHT22;63176;52.678;13.250;2022-10-24T02:23:54;13.10;1.00
7290;DHT22;63176;52.678;13.250;2022-10-24T02:26:32;13.00;1.00
7290;DHT22;63176;52.678;13.250;2022-10-24T02:29:02;13.00;99.90
7290;DHT22;63176;52.678;13.250;2022-10-24T02:31:33;12.90;99.90
7290;DHT22;63176;52.678;13.250;2022-10-24T02:34:01;12.90;99.90
7290;DHT22;63176;52.678;13.250;2022-10-24T02:36:28;12.80;99.90
7290;DHT22;63176;52.678;13.250;2022-10-24T02:38:56;12.80;99.90
7290;DHT22;63176;52.678;13.250;2022-10-24T02:41:25;12.70;99.90
7290;DHT22;63176;52.678;13.250;2022-10-24T02:43:52;12.70;99.90
7290;DHT22;63176;52.678;13.250;2022-10-24T02:46:19;12.60;52.50
7290;DHT22;63176;52.678;13.250;2022-10-24T02:48:57;12.60;23.40
7290;DHT22;63176;52.678;13.250;2022-10-24T02:51:36;12.60;45.90
7290;DHT22;63176;52.678;13.250;2022-10-24T02:54:04;12.50;1.00
7290;DHT22;63176;52.678;13.250;2022-10-24T02:56:30;12.50;46.30
7290;DHT22;63176;52.678;13.250;2022-10-24T02:58:56;12.50;22.20
7290;DHT22;63176;52.678;13.250;2022-10-24T03:01:22;12.50;1.00
7290;DHT22;63176;52.678;13.250;2022-10-24T03:03:48;12.40;1.00
7290;DHT22;63176;52.678;13.250;2022-10-24T03:06:13;12.40;1.00
7290;DHT22;63176;52.678;13.250;2022-10-24T03:08:39;12.30;1.00
7290;DHT22;63176;52.678;13.250;2022-10-24T03:11:05;12.30;1.00
7290;DHT22;63176;52.678;13.250;2022-10-24T03:13:31;12.30;1.00
7290;DHT22;63176;52.678;13.250;2022-10-24T03:15:57;12.30;1.00
7290;DHT22;63176;52.678;13.250;2022-10-24T03:18:22;12.30;1.00
7290;DHT22;63176;52.678;13.250;2022-10-24T03:20:48;12.30;1.00
7290;DHT22;63176;52.678;13.250;2022-10-24T03:23:14;12.20;1.00
7290;DHT22;63176;52.678;13.250;2022-10-24T03:25:41;12.20;1.00
7290;DHT22;63176;52.678;13.250;2022-10-24T03:28:07;12.20;1.00
7290;DHT22;63176;52.678;13.250;2022-10-24T03:30:32;12.20;1.00
7290;DHT22;63176;52.678;13.250;2022-10-24T03:32:58;12.10;1.00
7290;DHT22;63176;52.678;13.250;2022-10-24T03:35:24;12.10;1.00
7290;DHT22;63176;52.678;13.250;2022-10-24T03:37:49;12.10;1.00
7290;DHT22;63176;52.678;13.250;2022-10-24T03:40:15;12.00;1.00
7290;DHT22;63176;52.678;13.250;2022-10-24T03:42:41;12.00;1.00
7290;DHT22;63176;52.678;13.250;2022-10-24T03:45:07;12.00;1.00
7290;DHT22;63176;52.678;13.250;2022-10-24T03:47:33;12.00;1.00
7290;DHT22;63176;52.678;13.250;2022-10-24T03:49:58;11.90;1.00
7290;DHT22;63176;52.678;13.250;2022-10-24T03:52:24;11.90;1.00
7290;DHT22;63176;52.678;13.250;2022-10-24T03:54:50;11.90;1.00
7290;DHT22;63176;52.678;13.250;2022-10-24T03:57:15;11.90;1.00
7290;DHT22;63176;52.678;13.250;2022-10-24T03:59:41;11.80;1.00
7290;DHT22;63176;52.678;13.250;2022-10-24T04:02:07;11.80;1.00
7290;DHT22;63176;52.678;13.250;2022-10-24T04:04:32;11.80;1.00
7290;DHT22;63176;52.678;13.250;2022-10-24T04:06:58;11.80;1.00
7290;DHT22;63176;52.678;13.250;2022-10-24T04:09:25;11.80;1.00
7290;DHT22;63176;52.678;13.250;2022-10-24T04:11:51;11.80;1.00
7290;DHT22;63176;52.678;13.250;2022-10-24T04:14:19;11.80;1.00
7290;DHT22;63176;52.678;13.250;2022-10-24T04:16:44;11.70;1.00
7290;DHT22;63176;52.678;13.250;2022-10-24T04:19:10;11.70;1.00
7290;DHT22;63176;52.678;13.250;2022-10-24T04:21:36;11.70;1.00
7290;DHT22;63176;52.678;13.250;2022-10-24T04:24:02;11.70;1.00
7290;DHT22;63176;52.678;13.250;2022-10-24T04:26:28;11.70;1.00
7290;DHT22;63176;52.678;13.250;2022-10-24T04:28:53;11.70;1.00
7290;DHT22;63176;52.678;13.250;2022-10-24T04:31:19;11.70;1.00
7290;DHT22;63176;52.678;13.250;2022-10-24T04:33:45;11.70;1.00
7290;DHT22;63176;52.678;13.250;2022-10-24T04:36:11;11.70;1.00
7290;DHT22;63176;52.678;13.250;2022-10-24T04:38:36;11.60;1.00
7290;DHT22;63176;52.678;13.250;2022-10-24T04:41:02;11.70;1.00
7290;DHT22;63176;52.678;13.250;2022-10-24T04:43:27;11.70;1.00
7290;DHT22;63176;52.678;13.250;2022-10-24T04:45:53;11.60;1.00
7290;DHT22;63176;52.678;13.250;2022-10-24T04:48:19;11.60;1.00
7290;DHT22;63176;52.678;13.250;2022-10-24T04:50:45;11.60;1.00
7290;DHT22;63176;52.678;13.250;2022-10-24T04:53:12;11.60;1.00
7290;DHT22;63176;52.678;13.250;2022-10-24T04:55:38;11.60;1.00
7290;DHT22;63176;52.678;13.250;2022-10-24T04:58:04;11.60;1.00
7290;DHT22;63176;52.678;13.250;2022-10-24T05:00:30;11.60;1.00
7290;DHT22;63176;52.678;13.250;2022-10-24T05:02:55;11.60;1.00
7290;DHT22;63176;52.678;13.250;2022-10-24T05:05:21;11.60;1.00
7290;DHT22;63176;52.678;13.250;2022-10-24T05:07:46;11.60;1.00
7290;DHT22;63176;52.678;13.250;2022-10-24T05:10:14;11.60;1.00
7290;DHT22;63176;52.678;13.250;2022-10-24T05:12:40;11.60;1.00
7290;DHT22;63176;52.678;13.250;2022-10-24T05:15:07;11.60;1.00
7290;DHT22;63176;52.678;13.250;2022-10-24T05:17:33;11.70;1.00
7290;DHT22;63176;52.678;13.250;2022-10-24T05:19:59;11.70;1.00
7290;DHT22;63176;52.678;13.250;2022-10-24T05:22:25;11.70;1.00
7290;DHT22;63176;52.678;13.250;2022-10-24T05:24:50;11.80;1.00
7290;DHT22;63176;52.678;13.250;2022-10-24T05:27:16;11.80;1.00
7290;DHT22;63176;52.678;13.250;2022-10-24T05:29:58;11.80;1.00
7290;DHT22;63176;52.678;13.250;2022-10-24T05:32:23;11.90;1.00
7290;DHT22;63176;52.678;13.250;2022-10-24T05:34:49;12.00;1.00
7290;DHT22;63176;52.678;13.250;2022-10-24T05:37:16;12.00;1.00
7290;DHT22;63176;52.678;13.250;2022-10-24T05:39:41;12.00;1.00
7290;DHT22;63176;52.678;13.250;2022-10-24T05:42:07;12.10;1.00
7290;DHT22;63176;52.678;13.250;2022-10-24T05:44:33;12.10;1.00
7290;DHT22;63176;52.678;13.250;2022-10-24T05:46:58;12.20;1.00
7290;DHT22;63176;52.678;13.250;2022-10-24T05:49:24;12.20;1.00
7290;DHT22;63176;52.678;13.250;2022-10-24T05:51:50;12.20;1.00
7290;DHT22;63176;52.678;13.250;2022-10-24T05:54:15;12.30;1.00
7290;DHT22;63176;52.678;13.250;2022-10-24T05:56:41;12.20;1.00
7290;DHT22;63176;52.678;13.250;2022-10-24T05:59:07;12.30;1.00
7290;DHT22;63176;52.678;13.250;2022-10-24T06:01:33;12.30;15.00
7290;DHT22;63176;52.678;13.250;2022-10-24T06:03:59;12.30;1.90
7290;DHT22;63176;52.678;13.250;2022-10-24T06:06:24;12.30;1.00
7290;DHT22;63176;52.678;13.250;2022-10-24T06:08:50;12.30;1.00
7290;DHT22;63176;52.678;13.250;2022-10-24T06:11:17;12.30;1.00
7290;DHT22;63176;52.678;13.250;2022-10-24T06:13:43;12.20;1.00
7290;DHT22;63176;52.678;13.250;2022-10-24T06:16:10;12.20;1.00
7290;DHT22;63176;52.678;13.250;2022-10-24T06:18:37;12.20;1.00
7290;DHT22;63176;52.678;13.250;2022-10-24T06:21:04;12.20;1.00
7290;DHT22;63176;52.678;13.250;2022-10-24T06:23:30;12.20;1.00
7290;DHT22;63176;52.678;13.250;2022-10-24T06:25:56;12.30;1.00
7290;DHT22;63176;52.678;13.250;2022-10-24T06:28:22;12.30;27.00
7290;DHT22;63176;52.678;13.250;2022-10-24T06:30:48;12.30;19.00
7290;DHT22;63176;52.678;13.250;2022-10-24T06:33:14;12.30;9.20
7290;DHT22;63176;52.678;13.250;2022-10-24T06:35:40;12.40;99.90
7290;DHT22;63176;52.678;13.250;2022-10-24T06:38:06;12.40;99.90
7290;DHT22;63176;52.678;13.250;2022-10-24T06:40:32;12.50;99.90
7290;DHT22;63176;52.678;13.250;2022-10-24T06:42:57;12.50;1.00
7290;DHT22;63176;52.678;13.250;2022-10-24T06:45:23;12.60;1.00
7290;DHT22;63176;52.678;13.250;2022-10-24T06:47:52;12.60;1.00
7290;DHT22;63176;52.678;13.250;2022-10-24T06:50:17;12.70;1.00
7290;DHT22;63176;52.678;13.250;2022-10-24T06:52:43;12.70;99.90
7290;DHT22;63176;52.678;13.250;2022-10-24T06:55:09;12.80;99.90
7290;DHT22;63176;52.678;13.250;2022-10-24T06:57:35;12.90;1.00
7290;DHT22;63176;52.678;13.250;2022-10-24T07:00:00;12.90;1.00
7290;DHT22;63176;52.678;13.250;2022-10-24T07:02:26;12.90;1.00
7290;DHT22;63176;52.678;13.250;2022-10-24T07:04:52;13.00;1.00
7290;DHT22;63176;52.678;13.250;2022-10-24T07:07:19;13.00;1.00
7290;DHT22;63176;52.678;13.250;2022-10-24T07:09:51;13.10;1.00
7290;DHT22;63176;52.678;13.250;2022-10-24T07:12:17;13.10;1.00
7290;DHT22;63176;52.678;13.250;2022-10-24T07:14:43;13.10;1.00
7290;DHT22;63176;52.678;13.250;2022-10-24T07:17:08;13.20;1.00
7290;DHT22;63176;52.678;13.250;2022-10-24T07:19:34;13.20;1.00
7290;DHT22;63176;52.678;13.250;2022-10-24T07:21:59;13.20;1.00
7290;DHT22;63176;52.678;13.250;2022-10-24T07:24:25;13.30;12.20
7290;DHT22;63176;52.678;13.250;2022-10-24T07:26:51;13.30;30.10
7290;DHT22;63176;52.678;13.250;2022-10-24T07:29:16;13.40;68.40
7290;DHT22;63176;52.678;13.250;2022-10-24T07:31:42;13.40;99.70
7290;DHT22;63176;52.678;13.250;2022-10-24T07:34:08;13.40;99.90
7290;DHT22;63176;52.678;13.250;2022-10-24T07:36:34;13.50;99.90
7290;DHT22;63176;52.678;13.250;2022-10-24T07:39:00;13.50;99.90
7290;DHT22;63176;52.678;13.250;2022-10-24T07:41:29;13.60;99.90
7290;DHT22;63176;52.678;13.250;2022-10-24T07:43:56;13.60;99.90
7290;DHT22;63176;52.678;13.250;2022-10-24T07:46:22;13.70;99.90
7290;DHT22;63176;52.678;13.250;2022-10-24T07:48:49;13.70;99.90
7290;DHT22;63176;52.678;13.250;2022-10-24T07:51:15;13.70;99.90
7290;DHT22;63176;52.678;13.250;2022-10-24T07:53:41;13.80;99.90
7290;DHT22;63176;52.678;13.250;2022-10-24T07:56:10;13.90;99.90
7290;DHT22;63176;52.678;13.250;2022-10-24T07:58:39;13.90;99.90
7290;DHT22;63176;52.678;13.250;2022-10-24T08:01:07;14.00;99.90
7290;DHT22;63176;52.678;13.250;2022-10-24T08:03:33;14.00;99.90
7290;DHT22;63176;52.678;13.250;2022-10-24T08:05:59;14.10;99.90
7290;DHT22;63176;52.678;13.250;2022-10-24T08:08:25;14.10;99.90
7290;DHT22;63176;52.678;13.250;2022-10-24T08:10:50;14.20;99.90
7290;DHT22;63176;52.678;13.250;2022-10-24T08:13:16;14.20;99.90
7290;DHT22;63176;52.678;13.250;2022-10-24T08:15:42;14.30;99.90
7290;DHT22;63176;52.678;13.250;2022-10-24T08:18:08;14.40;99.90
7290;DHT22;63176;52.678;13.250;2022-10-24T08:20:33;14.40;99.90
7290;DHT22;63176;52.678;13.250;2022-10-24T08:22:59;14.50;99.90
7290;DHT22;63176;52.678;13.250;2022-10-24T08:25:25;14.60;99.90
7290;DHT22;63176;52.678;13.250;2022-10-24T08:27:50;14.60;99.90
7290;DHT22;63176;52.678;13.250;2022-10-24T08:30:16;14.60;99.90
7290;DHT22;63176;52.678;13.250;2022-10-24T08:32:42;14.70;77.00
7290;DHT22;63176;52.678;13.250;2022-10-24T08:35:08;14.70;45.70
7290;DHT22;63176;52.678;13.250;2022-10-24T08:37:38;14.80;1.00
7290;DHT22;63176;52.678;13.250;2022-10-24T08:40:09;14.90;1.00
7290;DHT22;63176;52.678;13.250;2022-10-24T08:42:38;14.90;1.00
7290;DHT22;63176;52.678;13.250;2022-10-24T08:45:11;14.90;1.00
7290;DHT22;63176;52.678;13.250;2022-10-24T08:47:41;15.00;1.00
7290;DHT22;63176;52.678;13.250;2022-10-24T08:53:46;15.10;99.90
7290;DHT22;63176;52.678;13.250;2022-10-24T08:55:56;15.10;99.90
7290;DHT22;63176;52.678;13.250;2022-10-24T08:58:25;15.10;80.40
7290;DHT22;63176;52.678;13.250;2022-10-24T09:00:55;15.20;1.00
7290;DHT22;63176;52.678;13.250;2022-10-24T09:06:12;15.20;1.00
7290;DHT22;63176;52.678;13.250;2022-10-24T09:09:35;15.20;1.00
7290;DHT22;63176;52.678;13.250;2022-10-24T09:11:55;15.30;1.00
7290;DHT22;63176;52.678;13.250;2022-10-24T09:14:26;15.40;1.00
7290;DHT22;63176;52.678;13.250;2022-10-24T09:19:36;15.50;99.90
7290;DHT22;63176;52.678;13.250;2022-10-24T09:22:02;15.60;99.90
7290;DHT22;63176;52.678;13.250;2022-10-24T09:27:20;15.70;99.90
7290;DHT22;63176;52.678;13.250;2022-10-24T09:29:47;15.70;99.90
7290;DHT22;63176;52.678;13.250;2022-10-24T09:32:16;15.80;99.90
7290;DHT22;63176;52.678;13.250;2022-10-24T09:34:43;15.90;10.20
7290;DHT22;63176;52.678;13.250;2022-10-24T09:40:26;16.00;1.00
7290;DHT22;63176;52.678;13.250;2022-10-24T09:51:08;16.20;1.00
7290;DHT22;63176;52.678;13.250;2022-10-24T09:54:04;16.20;1.00
7290;DHT22;63176;52.678;13.250;2022-10-24T09:56:38;16.20;1.00
7290;DHT22;63176;52.678;13.250;2022-10-24T10:04:41;16.30;1.00
7290;DHT22;63176;52.678;13.250;2022-10-24T10:07:09;16.30;1.00
7290;DHT22;63176;52.678;13.250;2022-10-24T10:09:35;16.40;1.00
7290;DHT22;63176;52.678;13.250;2022-10-24T10:12:24;16.40;1.00
7290;DHT22;63176;52.678;13.250;2022-10-24T10:14:51;16.40;1.00
7290;DHT22;63176;52.678;13.250;2022-10-24T10:17:25;16.40;1.00
7290;DHT22;63176;52.678;13.250;2022-10-24T10:19:53;16.40;1.00
7290;DHT22;63176;52.678;13.250;2022-10-24T10:22:29;16.40;1.00
7290;DHT22;63176;52.678;13.250;2022-10-24T10:24:56;16.40;1.00
7290;DHT22;63176;52.678;13.250;2022-10-24T10:27:38;16.50;1.00
7290;DHT22;63176;52.678;13.250;2022-10-24T10:35:18;16.60;1.00
7290;DHT22;63176;52.678;13.250;2022-10-24T10:38:36;16.70;1.00
7290;DHT22;63176;52.678;13.250;2022-10-24T10:40:44;16.80;1.00
7290;DHT22;63176;52.678;13.250;2022-10-24T10:51:55;16.90;99.90
7290;DHT22;63176;52.678;13.250;2022-10-24T10:54:39;16.90;99.90
7290;DHT22;63176;52.678;13.250;2022-10-24T10:57:13;16.90;99.90
7290;DHT22;63176;52.678;13.250;2022-10-24T11:00:23;16.90;99.90
7290;DHT22;63176;52.678;13.250;2022-10-24T11:08:56;17.00;99.90
7290;DHT22;63176;52.678;13.250;2022-10-24T11:11:27;17.00;99.90
7290;DHT22;63176;52.678;13.250;2022-10-24T11:17:25;17.00;99.90
7290;DHT22;63176;52.678;13.250;2022-10-24T11:20:19;17.00;99.90
7290;DHT22;63176;52.678;13.250;2022-10-24T11:22:53;17.00;99.90
7290;DHT22;63176;52.678;13.250;2022-10-24T11:31:00;17.00;99.90
7290;DHT22;63176;52.678;13.250;2022-10-24T11:33:31;17.10;99.90
7290;DHT22;63176;52.678;13.250;2022-10-24T11:38:35;17.10;99.90
7290;DHT22;63176;52.678;13.250;2022-10-24T11:44:09;17.20;99.90
7290;DHT22;63176;52.678;13.250;2022-10-24T11:46:41;17.20;99.90
7290;DHT22;63176;52.678;13.250;2022-10-24T11:49:30;17.20;99.90
7290;DHT22;63176;52.678;13.250;2022-10-24T11:52:30;17.30;99.90
7290;DHT22;63176;52.678;13.250;2022-10-24T11:57:37;17.50;99.90
7290;DHT22;63176;52.678;13.250;2022-10-24T12:00:04;17.50;99.90
7290;DHT22;63176;52.678;13.250;2022-10-24T12:02:53;17.50;99.90
7290;DHT22;63176;52.678;13.250;2022-10-24T12:19:13;17.60;99.90
7290;DHT22;63176;52.678;13.250;2022-10-24T12:21:53;17.60;99.90
7290;DHT22;63176;52.678;13.250;2022-10-24T12:24:23;17.60;99.90
7290;DHT22;63176;52.678;13.250;2022-10-24T12:26:57;17.50;99.90
7290;DHT22;63176;52.678;13.250;2022-10-24T12:29:25;17.50;99.90
7290;DHT22;63176;52.678;13.250;2022-10-24T12:31:51;17.50;99.90
7290;DHT22;63176;52.678;13.250;2022-10-24T12:37:35;17.60;99.90
7290;DHT22;63176;52.678;13.250;2022-10-24T12:39:54;17.60;99.90
7290;DHT22;63176;52.678;13.250;2022-10-24T12:58:22;17.70;99.90
7290;DHT22;63176;52.678;13.250;2022-10-24T13:00:56;17.70;99.90
7290;DHT22;63176;52.678;13.250;2022-10-24T13:12:03;17.90;99.90
7290;DHT22;63176;52.678;13.250;2022-10-24T13:14:49;17.90;99.90
7290;DHT22;63176;52.678;13.250;2022-10-24T13:22:42;18.20;99.90
7290;DHT22;63176;52.678;13.250;2022-10-24T13:25:41;18.20;99.90
7290;DHT22;63176;52.678;13.250;2022-10-24T13:36:16;18.50;99.90
7290;DHT22;63176;52.678;13.250;2022-10-24T13:41:41;18.50;99.90
7290;DHT22;63176;52.678;13.250;2022-10-24T13:46:48;18.50;99.90
7290;DHT22;63176;52.678;13.250;2022-10-24T13:49:29;18.50;99.90
7290;DHT22;63176;52.678;13.250;2022-10-24T13:53:00;18.50;99.90
7290;DHT22;63176;52.678;13.250;2022-10-24T13:55:03;18.50;99.90
7290;DHT22;63176;52.678;13.250;2022-10-24T13:57:32;18.30;99.90
7290;DHT22;63176;52.678;13.250;2022-10-24T14:00:06;18.20;99.90
7290;DHT22;63176;52.678;13.250;2022-10-24T14:02:37;18.20;99.90
7290;DHT22;63176;52.678;13.250;2022-10-24T14:05:04;18.10;99.90
7290;DHT22;63176;52.678;13.250;2022-10-24T14:07:31;18.10;99.90
7290;DHT22;63176;52.678;13.250;2022-10-24T14:10:10;18.10;99.90
7290;DHT22;63176;52.678;13.250;2022-10-24T14:12:38;18.00;99.90
7290;DHT22;63176;52.678;13.250;2022-10-24T14:15:04;18.00;99.90
7290;DHT22;63176;52.678;13.250;2022-10-24T14:17:33;18.00;99.90
7290;DHT22;63176;52.678;13.250;2022-10-24T14:22:36;17.90;99.90
7290;DHT22;63176;52.678;13.250;2022-10-24T14:25:51;17.90;99.90
7290;DHT22;63176;52.678;13.250;2022-10-24T14:27:52;17.80;99.90
7290;DHT22;63176;52.678;13.250;2022-10-24T14:30:22;17.80;99.90
7290;DHT22;63176;52.678;13.250;2022-10-24T14:32:48;17.80;99.90
7290;DHT22;63176;52.678;13.250;2022-10-24T14:35:14;17.80;99.90
7290;DHT22;63176;52.678;13.250;2022-10-24T14:37:41;17.80;99.90
7290;DHT22;63176;52.678;13.250;2022-10-24T14:40:25;17.80;99.90
7290;DHT22;63176;52.678;13.250;2022-10-24T14:42:52;17.80;99.90
7290;DHT22;63176;52.678;13.250;2022-10-24T14:45:26;17.80;99.90
7290;DHT22;63176;52.678;13.250;2022-10-24T14:47:54;17.70;99.90
7290;DHT22;63176;52.678;13.250;2022-10-24T14:50:52;17.70;99.90
7290;DHT22;63176;52.678;13.250;2022-10-24T14:53:22;17.70;99.90
7290;DHT22;63176;52.678;13.250;2022-10-24T14:55:54;17.60;99.90
7290;DHT22;63176;52.678;13.250;2022-10-24T14:58:29;17.60;99.90
7290;DHT22;63176;52.678;13.250;2022-10-24T15:00:56;17.50;99.90
7290;DHT22;63176;52.678;13.250;2022-10-24T15:03:26;17.40;99.90
7290;DHT22;63176;52.678;13.250;2022-10-24T15:08:36;17.30;99.90
7290;DHT22;63176;52.678;13.250;2022-10-24T15:11:15;17.30;99.90
7290;DHT22;63176;52.678;13.250;2022-10-24T15:13:50;17.30;99.90
7290;DHT22;63176;52.678;13.250;2022-10-24T15:16:27;17.20;99.90
7290;DHT22;63176;52.678;13.250;2022-10-24T15:18:56;17.10;99.90
7290;DHT22;63176;52.678;13.250;2022-10-24T15:21:25;17.10;99.90
7290;DHT22;63176;52.678;13.250;2022-10-24T15:23:55;17.00;99.90
7290;DHT22;63176;52.678;13.250;2022-10-24T15:31:28;16.70;99.90
7290;DHT22;63176;52.678;13.250;2022-10-24T15:33:54;16.70;99.90
7290;DHT22;63176;52.678;13.250;2022-10-24T15:36:24;16.70;99.90
7290;DHT22;63176;52.678;13.250;2022-10-24T15:38:55;16.70;99.90
7290;DHT22;63176;52.678;13.250;2022-10-24T15:41:22;16.60;99.90
7290;DHT22;63176;52.678;13.250;2022-10-24T15:43:48;16.60;99.90
7290;DHT22;63176;52.678;13.250;2022-10-24T15:46:14;16.60;99.90
7290;DHT22;63176;52.678;13.250;2022-10-24T15:48:39;16.60;99.90
7290;DHT22;63176;52.678;13.250;2022-10-24T15:51:05;16.50;99.90
7290;DHT22;63176;52.678;13.250;2022-10-24T15:53:31;16.50;99.90
7290;DHT22;63176;52.678;13.250;2022-10-24T15:55:56;16.50;99.90
7290;DHT22;63176;52.678;13.250;2022-10-24T15:58:22;16.50;99.90
7290;DHT22;63176;52.678;13.250;2022-10-24T16:00:48;16.50;99.90
7290;DHT22;63176;52.678;13.250;2022-10-24T16:03:19;16.50;99.90
7290;DHT22;63176;52.678;13.250;2022-10-24T16:05:50;16.50;99.90
7290;DHT22;63176;52.678;13.250;2022-10-24T16:08:17;16.50;99.90
7290;DHT22;63176;52.678;13.250;2022-10-24T16:10:44;16.50;99.90
7290;DHT22;63176;52.678;13.250;2022-10-24T16:13:14;16.50;99.90
7290;DHT22;63176;52.678;13.250;2022-10-24T16:15:41;16.50;99.90
7290;DHT22;63176;52.678;13.250;2022-10-24T16:18:07;16.40;99.90
7290;DHT22;63176;52.678;13.250;2022-10-24T16:20:33;16.40;99.90
7290;DHT22;63176;52.678;13.250;2022-10-24T16:22:59;16.40;99.90
7290;DHT22;63176;52.678;13.250;2022-10-24T16:25:28;16.40;99.90
7290;DHT22;63176;52.678;13.250;2022-10-24T16:27:54;16.40;99.90
7290;DHT22;63176;52.678;13.250;2022-10-24T16:30:23;16.40;99.90
7290;DHT22;63176;52.678;13.250;2022-10-24T16:32:49;16.40;99.90
7290;DHT22;63176;52.678;13.250;2022-10-24T16:35:24;16.40;99.90
7290;DHT22;63176;52.678;13.250;2022-10-24T16:37:51;16.30;99.90
7290;DHT22;63176;52.678;13.250;2022-10-24T16:40:17;16.40;99.90
7290;DHT22;63176;52.678;13.250;2022-10-24T16:42:43;16.40;99.90
7290;DHT22;63176;52.678;13.250;2022-10-24T16:45:09;16.40;99.90
7290;DHT22;63176;52.678;13.250;2022-10-24T16:47:36;16.40;99.90
7290;DHT22;63176;52.678;13.250;2022-10-24T16:50:03;16.40;99.90
7290;DHT22;63176;52.678;13.250;2022-10-24T16:52:29;16.30;99.90
7290;DHT22;63176;52.678;13.250;2022-10-24T16:54:54;16.40;99.90
7290;DHT22;63176;52.678;13.250;2022-10-24T16:57:22;16.40;99.90
7290;DHT22;63176;52.678;13.250;2022-10-24T16:59:48;16.40;99.90
7290;DHT22;63176;52.678;13.250;2022-10-24T17:02:15;16.40;99.90
7290;DHT22;63176;52.678;13.250;2022-10-24T17:04:41;16.50;99.90
7290;DHT22;63176;52.678;13.250;2022-10-24T17:07:11;16.40;99.90
7290;DHT22;63176;52.678;13.250;2022-10-24T17:09:37;16.40;99.90
7290;DHT22;63176;52.678;13.250;2022-10-24T17:12:04;16.40;99.90
7290;DHT22;63176;52.678;13.250;2022-10-24T17:14:31;16.40;99.90
7290;DHT22;63176;52.678;13.250;2022-10-24T17:16:57;16.40;99.90
7290;DHT22;63176;52.678;13.250;2022-10-24T17:19:23;16.30;99.90
7290;DHT22;63176;52.678;13.250;2022-10-24T17:21:50;16.30;99.90
7290;DHT22;63176;52.678;13.250;2022-10-24T17:24:21;16.30;99.90
7290;DHT22;63176;52.678;13.250;2022-10-24T17:26:48;16.30;99.90
7290;DHT22;63176;52.678;13.250;2022-10-24T17:29:31;16.30;99.90
7290;DHT22;63176;52.678;13.250;2022-10-24T17:31:57;16.30;99.90
7290;DHT22;63176;52.678;13.250;2022-10-24T17:34:24;16.20;99.90
7290;DHT22;63176;52.678;13.250;2022-10-24T17:37:23;16.20;99.90
7290;DHT22;63176;52.678;13.250;2022-10-24T17:39:55;16.20;99.90
7290;DHT22;63176;52.678;13.250;2022-10-24T17:42:22;16.20;99.90
7290;DHT22;63176;52.678;13.250;2022-10-24T17:44:48;16.20;99.90
7290;DHT22;63176;52.678;13.250;2022-10-24T17:47:14;16.20;99.90
7290;DHT22;63176;52.678;13.250;2022-10-24T17:49:41;16.10;99.90
7290;DHT22;63176;52.678;13.250;2022-10-24T17:52:09;16.10;99.90
7290;DHT22;63176;52.678;13.250;2022-10-24T17:54:36;16.10;99.90
7290;DHT22;63176;52.678;13.250;2022-10-24T17:57:01;16.10;99.90
7290;DHT22;63176;52.678;13.250;2022-10-24T17:59:29;16.00;99.90
7290;DHT22;63176;52.678;13.250;2022-10-24T18:01:55;16.00;99.90
7290;DHT22;63176;52.678;13.250;2022-10-24T18:04:21;16.00;99.90
7290;DHT22;63176;52.678;13.250;2022-10-24T18:06:46;16.00;99.90
7290;DHT22;63176;52.678;13.250;2022-10-24T18:09:12;15.90;99.90
7290;DHT22;63176;52.678;13.250;2022-10-24T18:11:38;16.00;99.90
7290;DHT22;63176;52.678;13.250;2022-10-24T18:14:04;15.90;99.90
7290;DHT22;63176;52.678;13.250;2022-10-24T18:16:29;15.90;99.90
7290;DHT22;63176;52.678;13.250;2022-10-24T18:18:55;15.90;99.90
7290;DHT22;63176;52.678;13.250;2022-10-24T18:21:23;15.80;99.90
7290;DHT22;63176;52.678;13.250;2022-10-24T18:23:50;15.80;99.90
7290;DHT22;63176;52.678;13.250;2022-10-24T18:26:18;15.70;99.90